sensor_id;sensor_type;location;lat;lon;timestamp;pressure;altitude;pressure_sealevel;temperature;humidity
7182;BME280;3632;42.724;23.298;2024-03-23T00:56:12;95477.38;;;5.50;72.61
7182;BME280;3632;42.724;23.298;2024-03-23T00:58:39;95473.84;;;5.68;71.50
7182;BME280;3632;42.724;23.298;2024-03-23T01:01:04;95470.28;;;5.86;70.86
7182;BME280;3632;42.724;23.298;2024-03-23T01:03:33;95461.84;;;5.56;70.03
7182;BME280;3632;42.724;23.298;2024-03-23T01:05:59;95462.38;;;6.07;69.84
7182;BME280;3632;42.724;23.298;2024-03-23T01:08:26;95463.94;;;6.23;69.57
7182;BME280;3632;42.724;23.298;2024-03-23T01:10:55;95466.56;;;6.50;68.08
7182;BME280;3632;42.724;23.298;2024-03-23T01:13:22;95456.25;;;6.53;67.39
7182;BME280;3632;42.724;23.298;2024-03-23T01:15:48;95455.16;;;6.43;67.90
7182;BME280;3632;42.724;23.298;2024-03-23T01:18:15;95463.94;;;6.52;67.42
7182;BME280;3632;42.724;23.298;2024-03-23T01:20:42;95465.47;;;6.26;68.88
7182;BME280;3632;42.724;23.298;2024-03-23T01:23:09;95461.72;;;6.03;69.31
7182;BME280;3632;42.724;23.298;2024-03-23T01:25:35;95468.78;;;5.82;69.88
7182;BME280;3632;42.724;23.298;2024-03-23T01:28:02;95445.41;;;5.49;70.84
7182;BME280;3632;42.724;23.298;2024-03-23T01:30:28;95467.44;;;5.77;71.35
7182;BME280;3632;42.724;23.298;2024-03-23T01:32:55;95467.47;;;5.61;71.61
7182;BME280;3632;42.724;23.298;2024-03-23T01:35:22;95448.41;;;4.79;72.50
7182;BME280;3632;42.724;23.298;2024-03-23T01:37:49;95463.59;;;5.40;73.33
7182;BME280;3632;42.724;23.298;2024-03-23T01:40:16;95501.38;;;5.12;73.32
7182;BME280;3632;42.724;23.298;2024-03-23T01:42:42;95464.03;;;4.70;74.72
7182;BME280;3632;42.724;23.298;2024-03-23T01:45:09;95463.38;;;4.97;74.61
7182;BME280;3632;42.724;23.298;2024-03-23T01:47:35;95458.66;;;5.23;74.33
7182;BME280;3632;42.724;23.298;2024-03-23T01:50:02;95467.38;;;5.33;73.36
7182;BME280;3632;42.724;23.298;2024-03-23T01:52:28;95459.88;;;5.61;72.04
7182;BME280;3632;42.724;23.298;2024-03-23T01:54:57;95465.00;;;5.75;70.40
7182;BME280;3632;42.724;23.298;2024-03-23T01:57:23;95465.44;;;5.52;71.95
7182;BME280;3632;42.724;23.298;2024-03-23T01:59:49;95460.56;;;5.49;72.06
7182;BME280;3632;42.724;23.298;2024-03-23T02:02:16;95471.06;;;5.57;72.08
7182;BME280;3632;42.724;23.298;2024-03-23T02:04:45;95463.03;;;5.35;72.17
7182;BME280;3632;42.724;23.298;2024-03-23T02:07:11;95467.94;;;5.22;73.18
7182;BME280;3632;42.724;23.298;2024-03-23T02:09:38;95469.00;;;5.18;73.61
7182;BME280;3632;42.724;23.298;2024-03-23T02:12:05;95462.25;;;5.19;73.95
7182;BME280;3632;42.724;23.298;2024-03-23T02:14:32;95463.88;;;4.88;74.66
7182;BME280;3632;42.724;23.298;2024-03-23T02:16:58;95479.13;;;4.38;76.58
7182;BME280;3632;42.724;23.298;2024-03-23T02:19:25;95477.88;;;4.30;77.55
7182;BME280;3632;42.724;23.298;2024-03-23T02:21:50;95514.09;;;4.29;78.09
7182;BME280;3632;42.724;23.298;2024-03-23T02:24:18;95478.06;;;4.09;78.71
7182;BME280;3632;42.724;23.298;2024-03-23T02:26:44;95501.38;;;3.97;79.54
7182;BME280;3632;42.724;23.298;2024-03-23T02:29:13;95478.69;;;3.97;80.15
7182;BME280;3632;42.724;23.298;2024-03-23T02:31:39;95477.69;;;4.00;79.60
7182;BME280;3632;42.724;23.298;2024-03-23T02:34:06;95474.78;;;4.07;78.83
7182;BME280;3632;42.724;23.298;2024-03-23T02:36:31;95498.25;;;3.75;79.85
7182;BME280;3632;42.724;23.298;2024-03-23T02:38:58;95430.47;;;3.86;79.33
7182;BME280;3632;42.724;23.298;2024-03-23T02:41:25;95474.63;;;3.78;80.15
7182;BME280;3632;42.724;23.298;2024-03-23T02:43:52;95480.88;;;3.86;80.35
7182;BME280;3632;42.724;23.298;2024-03-23T02:46:18;95480.75;;;3.89;79.81
7182;BME280;3632;42.724;23.298;2024-03-23T02:48:44;95357.69;;;3.30;79.49
7182;BME280;3632;42.724;23.298;2024-03-23T02:51:10;95342.03;;;3.41;78.31
7182;BME280;3632;42.724;23.298;2024-03-23T02:53:37;95481.41;;;4.43;77.80
7182;BME280;3632;42.724;23.298;2024-03-23T02:56:03;95456.34;;;4.40;77.68
7182;BME280;3632;42.724;23.298;2024-03-23T02:58:31;95460.75;;;4.36;77.81
7182;BME280;3632;42.724;23.298;2024-03-23T03:00:57;95477.03;;;4.46;77.74
7182;BME280;3632;42.724;23.298;2024-03-23T03:03:24;95463.34;;;4.50;77.78
7182;BME280;3632;42.724;23.298;2024-03-23T03:05:55;95471.16;;;4.46;77.25
7182;BME280;3632;42.724;23.298;2024-03-23T03:08:22;95423.09;;;3.99;77.72
7182;BME280;3632;42.724;23.298;2024-03-23T03:10:47;95469.16;;;4.20;78.53
7182;BME280;3632;42.724;23.298;2024-03-23T03:13:14;95470.25;;;3.64;80.28
7182;BME280;3632;42.724;23.298;2024-03-23T03:15:42;95479.19;;;3.69;81.39
7182;BME280;3632;42.724;23.298;2024-03-23T03:18:09;95463.09;;;4.06;79.73
7182;BME280;3632;42.724;23.298;2024-03-23T03:20:37;95471.38;;;4.08;79.75
7182;BME280;3632;42.724;23.298;2024-03-23T03:23:04;95473.97;;;4.24;80.01
7182;BME280;3632;42.724;23.298;2024-03-23T03:25:31;95487.47;;;4.23;79.38
7182;BME280;3632;42.724;23.298;2024-03-23T03:27:57;95474.53;;;4.29;78.72
7182;BME280;3632;42.724;23.298;2024-03-23T03:30:24;95406.47;;;3.79;78.73
7182;BME280;3632;42.724;23.298;2024-03-23T03:32:53;95471.53;;;4.23;79.01
7182;BME280;3632;42.724;23.298;2024-03-23T03:35:20;95472.25;;;4.25;79.28
7182;BME280;3632;42.724;23.298;2024-03-23T03:37:45;95397.75;;;3.69;79.13
7182;BME280;3632;42.724;23.298;2024-03-23T03:40:12;95473.31;;;4.03;79.78
7182;BME280;3632;42.724;23.298;2024-03-23T03:42:40;95391.91;;;3.34;79.42
7182;BME280;3632;42.724;23.298;2024-03-23T03:45:07;95483.41;;;4.03;79.83
7182;BME280;3632;42.724;23.298;2024-03-23T03:47:33;95470.88;;;4.02;79.67
7182;BME280;3632;42.724;23.298;2024-03-23T03:50:01;95475.84;;;3.86;80.17
7182;BME280;3632;42.724;23.298;2024-03-23T03:52:27;95472.25;;;3.21;81.18
7182;BME280;3632;42.724;23.298;2024-03-23T03:55:01;95469.25;;;3.66;81.55
7182;BME280;3632;42.724;23.298;2024-03-23T03:57:28;95478.91;;;3.93;80.87
7182;BME280;3632;42.724;23.298;2024-03-23T03:59:54;95481.38;;;3.94;80.87
7182;BME280;3632;42.724;23.298;2024-03-23T04:02:20;95473.47;;;4.00;80.57
7182;BME280;3632;42.724;23.298;2024-03-23T04:04:47;95401.31;;;3.48;80.25
7182;BME280;3632;42.724;23.298;2024-03-23T04:07:14;95511.63;;;3.94;80.31
7182;BME280;3632;42.724;23.298;2024-03-23T04:09:42;95476.31;;;3.77;80.16
7182;BME280;3632;42.724;23.298;2024-03-23T04:12:09;95480.09;;;3.51;81.87
7182;BME280;3632;42.724;23.298;2024-03-23T04:14:35;95487.34;;;3.57;81.27
7182;BME280;3632;42.724;23.298;2024-03-23T04:17:02;95488.47;;;3.52;81.69
7182;BME280;3632;42.724;23.298;2024-03-23T04:19:28;95493.81;;;3.63;81.79
7182;BME280;3632;42.724;23.298;2024-03-23T04:21:54;95454.97;;;3.50;81.37
7182;BME280;3632;42.724;23.298;2024-03-23T04:24:22;95497.16;;;3.63;81.78
7182;BME280;3632;42.724;23.298;2024-03-23T04:26:48;95546.16;;;3.75;81.34
7182;BME280;3632;42.724;23.298;2024-03-23T04:29:15;95488.47;;;3.69;81.45
7182;BME280;3632;42.724;23.298;2024-03-23T04:31:41;95487.13;;;3.62;81.49
7182;BME280;3632;42.724;23.298;2024-03-23T04:34:07;95485.97;;;3.69;81.71
7182;BME280;3632;42.724;23.298;2024-03-23T04:36:34;95482.66;;;3.50;82.59
7182;BME280;3632;42.724;23.298;2024-03-23T04:39:01;95486.69;;;3.71;82.05
7182;BME280;3632;42.724;23.298;2024-03-23T04:41:29;95494.41;;;3.85;81.21
7182;BME280;3632;42.724;23.298;2024-03-23T04:43:56;95495.13;;;3.87;80.66
7182;BME280;3632;42.724;23.298;2024-03-23T04:46:23;95503.50;;;4.05;79.95
7182;BME280;3632;42.724;23.298;2024-03-23T04:48:49;95507.38;;;3.95;79.80
7182;BME280;3632;42.724;23.298;2024-03-23T04:51:20;95499.88;;;3.93;80.33
7182;BME280;3632;42.724;23.298;2024-03-23T04:53:47;95501.53;;;4.11;79.43
7182;BME280;3632;42.724;23.298;2024-03-23T04:56:14;95507.28;;;4.31;78.37
7182;BME280;3632;42.724;23.298;2024-03-23T04:58:42;95502.03;;;4.18;78.46
7182;BME280;3632;42.724;23.298;2024-03-23T05:01:08;95504.78;;;4.13;78.15
7182;BME280;3632;42.724;23.298;2024-03-23T05:03:35;95507.00;;;3.68;80.02
7182;BME280;3632;42.724;23.298;2024-03-23T05:06:01;95389.28;;;3.36;79.72
7182;BME280;3632;42.724;23.298;2024-03-23T05:08:27;95507.84;;;4.03;79.01
7182;BME280;3632;42.724;23.298;2024-03-23T05:10:53;95502.03;;;4.18;78.81
7182;BME280;3632;42.724;23.298;2024-03-23T05:13:20;95490.66;;;4.27;78.80
7182;BME280;3632;42.724;23.298;2024-03-23T05:15:52;95524.22;;;4.11;79.04
7182;BME280;3632;42.724;23.298;2024-03-23T05:18:19;95492.13;;;4.31;78.57
7182;BME280;3632;42.724;23.298;2024-03-23T05:20:45;95502.72;;;4.37;78.38
7182;BME280;3632;42.724;23.298;2024-03-23T05:23:11;95496.31;;;4.47;78.23
7182;BME280;3632;42.724;23.298;2024-03-23T05:25:37;95485.06;;;4.70;77.74
7182;BME280;3632;42.724;23.298;2024-03-23T05:28:04;95489.63;;;4.79;76.74
7182;BME280;3632;42.724;23.298;2024-03-23T05:30:30;95488.25;;;4.74;77.01
7182;BME280;3632;42.724;23.298;2024-03-23T05:32:58;95499.75;;;4.95;75.16
7182;BME280;3632;42.724;23.298;2024-03-23T05:35:24;95443.50;;;4.76;74.98
7182;BME280;3632;42.724;23.298;2024-03-23T05:37:51;95465.75;;;5.16;74.06
7182;BME280;3632;42.724;23.298;2024-03-23T05:40:17;95493.50;;;5.47;73.20
7182;BME280;3632;42.724;23.298;2024-03-23T05:42:43;95496.72;;;5.65;72.73
7182;BME280;3632;42.724;23.298;2024-03-23T05:45:09;95490.66;;;5.83;71.61
7182;BME280;3632;42.724;23.298;2024-03-23T05:47:36;95447.75;;;5.82;71.03
7182;BME280;3632;42.724;23.298;2024-03-23T05:50:04;95454.94;;;5.89;70.10
7182;BME280;3632;42.724;23.298;2024-03-23T05:52:31;95490.03;;;6.24;70.02
7182;BME280;3632;42.724;23.298;2024-03-23T05:54:57;95416.09;;;5.90;69.44
7182;BME280;3632;42.724;23.298;2024-03-23T05:57:24;95508.53;;;6.40;68.89
7182;BME280;3632;42.724;23.298;2024-03-23T05:59:51;95483.09;;;6.56;68.01
7182;BME280;3632;42.724;23.298;2024-03-23T06:02:18;95482.47;;;6.66;66.81
7182;BME280;3632;42.724;23.298;2024-03-23T06:04:45;95479.75;;;6.69;67.59
7182;BME280;3632;42.724;23.298;2024-03-23T06:07:13;95455.25;;;6.56;67.25
7182;BME280;3632;42.724;23.298;2024-03-23T06:09:40;95480.81;;;6.79;66.91
7182;BME280;3632;42.724;23.298;2024-03-23T06:12:07;95485.06;;;6.79;66.50
7182;BME280;3632;42.724;23.298;2024-03-23T06:14:33;95477.59;;;6.77;66.77
7182;BME280;3632;42.724;23.298;2024-03-23T06:17:00;95473.69;;;6.86;65.89
7182;BME280;3632;42.724;23.298;2024-03-23T06:19:26;95476.47;;;6.96;65.97
7182;BME280;3632;42.724;23.298;2024-03-23T06:21:53;95472.19;;;7.10;65.72
7182;BME280;3632;42.724;23.298;2024-03-23T06:24:20;95467.56;;;7.17;64.88
7182;BME280;3632;42.724;23.298;2024-03-23T06:26:47;95482.59;;;7.06;65.27
7182;BME280;3632;42.724;23.298;2024-03-23T06:29:13;95434.38;;;6.93;65.91
7182;BME280;3632;42.724;23.298;2024-03-23T06:31:40;95474.94;;;7.34;65.03
7182;BME280;3632;42.724;23.298;2024-03-23T06:34:05;95474.75;;;7.37;64.77
7182;BME280;3632;42.724;23.298;2024-03-23T06:36:32;95479.91;;;7.62;63.58
7182;BME280;3632;42.724;23.298;2024-03-23T06:38:58;95467.28;;;7.61;63.53
7182;BME280;3632;42.724;23.298;2024-03-23T06:41:26;95473.59;;;7.55;63.15
7182;BME280;3632;42.724;23.298;2024-03-23T06:43:52;95464.69;;;7.62;63.89
7182;BME280;3632;42.724;23.298;2024-03-23T06:46:19;95465.31;;;7.78;63.22
7182;BME280;3632;42.724;23.298;2024-03-23T06:48:44;95378.59;;;7.34;62.66
7182;BME280;3632;42.724;23.298;2024-03-23T06:51:11;95462.81;;;8.04;62.39
7182;BME280;3632;42.724;23.298;2024-03-23T06:53:37;95466.69;;;8.22;62.43
7182;BME280;3632;42.724;23.298;2024-03-23T06:56:04;95436.31;;;7.95;62.09
7182;BME280;3632;42.724;23.298;2024-03-23T06:58:32;95465.56;;;8.13;62.68
7182;BME280;3632;42.724;23.298;2024-03-23T07:00:59;95467.72;;;8.32;62.77
7182;BME280;3632;42.724;23.298;2024-03-23T07:03:25;95392.22;;;7.58;62.62
7182;BME280;3632;42.724;23.298;2024-03-23T07:05:52;95456.06;;;8.42;61.91
7182;BME280;3632;42.724;23.298;2024-03-23T07:08:18;95464.38;;;8.69;60.89
7182;BME280;3632;42.724;23.298;2024-03-23T07:10:47;95458.22;;;8.85;59.94
7182;BME280;3632;42.724;23.298;2024-03-23T07:13:13;95452.44;;;8.95;59.54
7182;BME280;3632;42.724;23.298;2024-03-23T07:15:42;95445.34;;;9.11;58.81
7182;BME280;3632;42.724;23.298;2024-03-23T07:18:07;95444.59;;;9.22;58.58
7182;BME280;3632;42.724;23.298;2024-03-23T07:20:34;95406.78;;;8.94;58.12
7182;BME280;3632;42.724;23.298;2024-03-23T07:23:00;95412.41;;;9.10;58.46
7182;BME280;3632;42.724;23.298;2024-03-23T07:25:27;95438.78;;;9.33;58.41
7182;BME280;3632;42.724;23.298;2024-03-23T07:27:54;95385.19;;;8.99;58.29
7182;BME280;3632;42.724;23.298;2024-03-23T07:30:21;95437.41;;;9.40;58.43
7182;BME280;3632;42.724;23.298;2024-03-23T07:32:48;95405.56;;;9.34;58.16
7182;BME280;3632;42.724;23.298;2024-03-23T07:35:15;95433.91;;;9.64;57.72
7182;BME280;3632;42.724;23.298;2024-03-23T07:37:41;95387.84;;;9.45;57.80
7182;BME280;3632;42.724;23.298;2024-03-23T07:40:08;95335.63;;;9.29;57.41
7182;BME280;3632;42.724;23.298;2024-03-23T07:42:37;95370.19;;;9.66;56.76
7182;BME280;3632;42.724;23.298;2024-03-23T07:45:03;95419.91;;;10.05;57.07
7182;BME280;3632;42.724;23.298;2024-03-23T07:47:32;95402.53;;;9.88;59.14
7182;BME280;3632;42.724;23.298;2024-03-23T07:49:59;95420.75;;;10.05;59.20
7182;BME280;3632;42.724;23.298;2024-03-23T07:52:28;95418.00;;;10.20;57.47
7182;BME280;3632;42.724;23.298;2024-03-23T07:54:54;95410.81;;;10.36;57.19
7182;BME280;3632;42.724;23.298;2024-03-23T07:57:20;95408.28;;;10.47;57.04
7182;BME280;3632;42.724;23.298;2024-03-23T07:59:46;95409.81;;;10.61;56.01
7182;BME280;3632;42.724;23.298;2024-03-23T08:02:13;95301.63;;;9.76;56.10
7182;BME280;3632;42.724;23.298;2024-03-23T08:04:39;95419.03;;;10.84;56.18
7182;BME280;3632;42.724;23.298;2024-03-23T08:07:07;95411.34;;;10.95;55.31
7182;BME280;3632;42.724;23.298;2024-03-23T08:09:33;95405.69;;;10.91;55.66
7182;BME280;3632;42.724;23.298;2024-03-23T08:11:59;95410.66;;;11.04;56.12
7182;BME280;3632;42.724;23.298;2024-03-23T08:14:25;95419.66;;;11.19;55.42
7182;BME280;3632;42.724;23.298;2024-03-23T08:16:54;95371.72;;;10.91;56.65
7182;BME280;3632;42.724;23.298;2024-03-23T08:19:21;95398.25;;;11.42;57.03
7182;BME280;3632;42.724;23.298;2024-03-23T08:21:46;95391.53;;;11.73;54.78
7182;BME280;3632;42.724;23.298;2024-03-23T08:24:15;95398.84;;;11.67;54.07
7182;BME280;3632;42.724;23.298;2024-03-23T08:26:41;95386.41;;;11.73;53.52
7182;BME280;3632;42.724;23.298;2024-03-23T08:29:08;95389.78;;;11.95;53.54
7182;BME280;3632;42.724;23.298;2024-03-23T08:31:33;95388.31;;;12.22;54.57
7182;BME280;3632;42.724;23.298;2024-03-23T08:34:00;95379.88;;;12.62;62.13
7182;BME280;3632;42.724;23.298;2024-03-23T08:36:26;95377.97;;;12.24;54.66
7182;BME280;3632;42.724;23.298;2024-03-23T08:38:53;95322.72;;;12.02;55.10
7182;BME280;3632;42.724;23.298;2024-03-23T08:41:22;95369.88;;;12.19;54.03
7182;BME280;3632;42.724;23.298;2024-03-23T08:43:48;95336.09;;;12.15;52.62
7182;BME280;3632;42.724;23.298;2024-03-23T08:46:15;95367.19;;;12.51;52.91
7182;BME280;3632;42.724;23.298;2024-03-23T08:48:44;95195.41;;;11.67;53.07
7182;BME280;3632;42.724;23.298;2024-03-23T08:51:11;95241.06;;;12.31;54.09
7182;BME280;3632;42.724;23.298;2024-03-23T08:53:39;95283.00;;;12.78;53.00
7182;BME280;3632;42.724;23.298;2024-03-23T08:56:07;95255.00;;;12.76;51.42
7182;BME280;3632;42.724;23.298;2024-03-23T08:58:36;95349.59;;;13.36;52.65
7182;BME280;3632;42.724;23.298;2024-03-23T09:01:06;95346.63;;;13.50;51.34
7182;BME280;3632;42.724;23.298;2024-03-23T09:03:33;95343.34;;;13.77;51.12
7182;BME280;3632;42.724;23.298;2024-03-23T09:06:00;95335.09;;;13.92;50.19
7182;BME280;3632;42.724;23.298;2024-03-23T09:08:27;95335.69;;;14.23;49.13
7182;BME280;3632;42.724;23.298;2024-03-23T09:10:53;95330.78;;;14.39;49.82
7182;BME280;3632;42.724;23.298;2024-03-23T09:13:21;95247.53;;;14.34;59.43
7182;BME280;3632;42.724;23.298;2024-03-23T09:15:49;95316.56;;;15.35;60.04
7182;BME280;3632;42.724;23.298;2024-03-23T09:18:16;95325.25;;;16.03;54.90
7182;BME280;3632;42.724;23.298;2024-03-23T09:20:42;95255.47;;;15.64;48.77
7182;BME280;3632;42.724;23.298;2024-03-23T09:23:09;95247.53;;;15.58;50.88
7182;BME280;3632;42.724;23.298;2024-03-23T09:25:36;95294.84;;;16.58;48.48
7182;BME280;3632;42.724;23.298;2024-03-23T09:28:04;95168.47;;;15.43;50.11
7182;BME280;3632;42.724;23.298;2024-03-23T09:30:32;95287.22;;;16.15;47.72
7182;BME280;3632;42.724;23.298;2024-03-23T09:33:00;95273.03;;;16.03;47.62
7182;BME280;3632;42.724;23.298;2024-03-23T09:35:27;95277.78;;;15.89;48.44
7182;BME280;3632;42.724;23.298;2024-03-23T09:37:54;95285.00;;;16.20;48.04
7182;BME280;3632;42.724;23.298;2024-03-23T09:40:20;95275.16;;;16.49;46.91
7182;BME280;3632;42.724;23.298;2024-03-23T09:42:50;95189.56;;;16.31;46.83
7182;BME280;3632;42.724;23.298;2024-03-23T09:45:20;95261.59;;;16.89;47.48
7182;BME280;3632;42.724;23.298;2024-03-23T09:47:48;95258.41;;;17.03;46.86
7182;BME280;3632;42.724;23.298;2024-03-23T09:50:16;95267.28;;;17.25;46.58
7182;BME280;3632;42.724;23.298;2024-03-23T09:52:43;95215.44;;;16.79;45.16
7182;BME280;3632;42.724;23.298;2024-03-23T09:55:11;95244.09;;;17.01;46.43
7182;BME280;3632;42.724;23.298;2024-03-23T09:57:39;95221.25;;;17.06;47.22
7182;BME280;3632;42.724;23.298;2024-03-23T10:00:06;95233.97;;;17.40;45.58
7182;BME280;3632;42.724;23.298;2024-03-23T10:02:34;95229.69;;;17.87;46.06
7182;BME280;3632;42.724;23.298;2024-03-23T10:05:00;95203.56;;;17.98;45.47
7182;BME280;3632;42.724;23.298;2024-03-23T10:07:29;95229.66;;;18.42;43.81
7182;BME280;3632;42.724;23.298;2024-03-23T10:09:55;95228.34;;;18.46;44.75
7182;BME280;3632;42.724;23.298;2024-03-23T10:12:23;95214.94;;;18.82;43.42
7182;BME280;3632;42.724;23.298;2024-03-23T10:14:50;95179.94;;;18.79;43.40
7182;BME280;3632;42.724;23.298;2024-03-23T10:17:18;95220.69;;;18.92;43.26
7182;BME280;3632;42.724;23.298;2024-03-23T10:19:44;95205.94;;;18.78;42.35
7182;BME280;3632;42.724;23.298;2024-03-23T10:22:13;95111.28;;;17.86;43.12
7182;BME280;3632;42.724;23.298;2024-03-23T10:24:41;95061.84;;;18.05;42.50
7182;BME280;3632;42.724;23.298;2024-03-23T10:27:08;95147.00;;;18.81;42.87
7182;BME280;3632;42.724;23.298;2024-03-23T10:29:33;95114.19;;;18.67;42.64
7182;BME280;3632;42.724;23.298;2024-03-23T10:32:10;95074.72;;;18.96;42.68
7182;BME280;3632;42.724;23.298;2024-03-23T10:34:36;95168.56;;;20.07;40.62
7182;BME280;3632;42.724;23.298;2024-03-23T10:37:04;95165.19;;;20.42;40.01
7182;BME280;3632;42.724;23.298;2024-03-23T10:39:34;95128.81;;;20.29;38.18
7182;BME280;3632;42.724;23.298;2024-03-23T10:42:06;95162.38;;;20.80;37.31
7182;BME280;3632;42.724;23.298;2024-03-23T10:44:33;95155.66;;;20.85;37.92
7182;BME280;3632;42.724;23.298;2024-03-23T10:47:01;95157.25;;;21.29;37.80
7182;BME280;3632;42.724;23.298;2024-03-23T10:49:28;95007.59;;;20.33;34.56
7182;BME280;3632;42.724;23.298;2024-03-23T10:51:57;95132.06;;;21.51;37.11
7182;BME280;3632;42.724;23.298;2024-03-23T10:54:24;95127.72;;;21.58;35.16
7182;BME280;3632;42.724;23.298;2024-03-23T10:56:58;95119.09;;;21.85;36.69
7182;BME280;3632;42.724;23.298;2024-03-23T10:59:27;95064.75;;;21.77;37.11
7182;BME280;3632;42.724;23.298;2024-03-23T11:01:56;95106.97;;;21.99;35.14
7182;BME280;3632;42.724;23.298;2024-03-23T11:04:32;95096.81;;;22.04;33.77
7182;BME280;3632;42.724;23.298;2024-03-23T11:07:00;95021.44;;;21.71;35.61
7182;BME280;3632;42.724;23.298;2024-03-23T11:09:38;95088.34;;;22.36;35.49
7182;BME280;3632;42.724;23.298;2024-03-23T11:12:23;95057.53;;;22.13;35.07
7182;BME280;3632;42.724;23.298;2024-03-23T11:14:53;95081.03;;;22.99;34.67
7182;BME280;3632;42.724;23.298;2024-03-23T11:17:21;95069.81;;;22.85;34.82
7182;BME280;3632;42.724;23.298;2024-03-23T11:19:53;95040.25;;;22.73;33.80
7182;BME280;3632;42.724;23.298;2024-03-23T11:22:41;95060.41;;;22.71;32.99
7182;BME280;3632;42.724;23.298;2024-03-23T11:25:14;95044.38;;;23.13;31.80
7182;BME280;3632;42.724;23.298;2024-03-23T11:27:43;95021.84;;;22.94;33.00
7182;BME280;3632;42.724;23.298;2024-03-23T11:30:12;95035.72;;;23.59;33.18
7182;BME280;3632;42.724;23.298;2024-03-23T11:32:39;95005.47;;;23.64;31.45
7182;BME280;3632;42.724;23.298;2024-03-23T11:35:06;95026.50;;;23.63;31.39
7182;BME280;3632;42.724;23.298;2024-03-23T11:37:35;95025.66;;;23.69;30.23
7182;BME280;3632;42.724;23.298;2024-03-23T11:40:17;94993.47;;;24.01;31.45
7182;BME280;3632;42.724;23.298;2024-03-23T11:42:43;94996.53;;;24.30;31.56
7182;BME280;3632;42.724;23.298;2024-03-23T11:45:12;95003.78;;;24.77;31.51
7182;BME280;3632;42.724;23.298;2024-03-23T11:47:39;94955.81;;;24.35;30.91
7182;BME280;3632;42.724;23.298;2024-03-23T11:50:05;94878.50;;;24.04;29.91
7182;BME280;3632;42.724;23.298;2024-03-23T11:52:32;94994.28;;;24.58;31.49
7182;BME280;3632;42.724;23.298;2024-03-23T11:55:05;94979.72;;;25.18;29.28
7182;BME280;3632;42.724;23.298;2024-03-23T11:57:33;94976.81;;;24.90;29.35
7182;BME280;3632;42.724;23.298;2024-03-23T11:59:59;94883.16;;;24.27;29.54
7182;BME280;3632;42.724;23.298;2024-03-23T12:02:28;94968.66;;;25.41;28.35
7182;BME280;3632;42.724;23.298;2024-03-23T12:04:53;94861.66;;;24.93;28.21
7182;BME280;3632;42.724;23.298;2024-03-23T12:07:21;94921.91;;;25.21;27.44
7182;BME280;3632;42.724;23.298;2024-03-23T12:09:49;94946.41;;;25.98;28.23
7182;BME280;3632;42.724;23.298;2024-03-23T12:12:28;94789.63;;;25.40;27.75
7182;BME280;3632;42.724;23.298;2024-03-23T12:15:02;94939.63;;;26.39;26.33
7182;BME280;3632;42.724;23.298;2024-03-23T12:17:30;94935.19;;;26.62;27.37
7182;BME280;3632;42.724;23.298;2024-03-23T12:19:56;94935.09;;;26.80;25.83
7182;BME280;3632;42.724;23.298;2024-03-23T12:22:23;94930.22;;;26.72;25.56
7182;BME280;3632;42.724;23.298;2024-03-23T12:24:49;94925.31;;;26.88;25.77
7182;BME280;3632;42.724;23.298;2024-03-23T12:27:16;94922.81;;;26.46;24.87
7182;BME280;3632;42.724;23.298;2024-03-23T12:29:43;94926.56;;;26.62;25.18
7182;BME280;3632;42.724;23.298;2024-03-23T12:32:12;94917.00;;;26.67;24.87
7182;BME280;3632;42.724;23.298;2024-03-23T12:34:40;94872.31;;;26.80;25.42
7182;BME280;3632;42.724;23.298;2024-03-23T12:37:06;94859.44;;;27.14;25.08
7182;BME280;3632;42.724;23.298;2024-03-23T12:39:34;94901.88;;;27.44;24.32
7182;BME280;3632;42.724;23.298;2024-03-23T12:42:00;94907.53;;;27.64;24.98
7182;BME280;3632;42.724;23.298;2024-03-23T12:44:28;94892.53;;;27.08;24.49
7182;BME280;3632;42.724;23.298;2024-03-23T12:46:54;94893.47;;;25.79;26.46
7182;BME280;3632;42.724;23.298;2024-03-23T12:49:20;94889.22;;;26.08;25.31
7182;BME280;3632;42.724;23.298;2024-03-23T12:51:53;94878.16;;;25.83;23.68
7182;BME280;3632;42.724;23.298;2024-03-23T12:54:20;94875.13;;;25.56;23.27
7182;BME280;3632;42.724;23.298;2024-03-23T12:56:46;94879.91;;;24.93;23.36
7182;BME280;3632;42.724;23.298;2024-03-23T12:59:13;94831.44;;;24.67;23.13
7182;BME280;3632;42.724;23.298;2024-03-23T13:01:39;94830.09;;;25.72;23.69
7182;BME280;3632;42.724;23.298;2024-03-23T13:04:06;94860.06;;;26.23;22.97
7182;BME280;3632;42.724;23.298;2024-03-23T13:06:32;94861.34;;;26.55;22.95
7182;BME280;3632;42.724;23.298;2024-03-23T13:09:01;94868.72;;;26.58;21.31
7182;BME280;3632;42.724;23.298;2024-03-23T13:11:26;94845.50;;;26.62;20.84
7182;BME280;3632;42.724;23.298;2024-03-23T13:13:53;94820.16;;;26.62;20.90
7182;BME280;3632;42.724;23.298;2024-03-23T13:16:19;94852.03;;;26.48;21.39
7182;BME280;3632;42.724;23.298;2024-03-23T13:18:46;94836.91;;;26.26;20.91
7182;BME280;3632;42.724;23.298;2024-03-23T13:21:12;94837.19;;;26.07;20.85
7182;BME280;3632;42.724;23.298;2024-03-23T13:23:39;94835.72;;;25.99;21.25
7182;BME280;3632;42.724;23.298;2024-03-23T13:26:09;94830.91;;;25.73;21.45
7182;BME280;3632;42.724;23.298;2024-03-23T13:28:36;94812.50;;;26.21;21.70
7182;BME280;3632;42.724;23.298;2024-03-23T13:31:02;94834.59;;;26.88;20.75
7182;BME280;3632;42.724;23.298;2024-03-23T13:33:30;94834.91;;;26.92;20.84
7182;BME280;3632;42.724;23.298;2024-03-23T13:35:57;94820.81;;;26.93;20.89
7182;BME280;3632;42.724;23.298;2024-03-23T13:38:30;94818.13;;;27.44;20.43
7182;BME280;3632;42.724;23.298;2024-03-23T13:41:05;94772.25;;;27.53;20.53
7182;BME280;3632;42.724;23.298;2024-03-23T14:00:52;94547.81;;;25.80;21.60
7182;BME280;3632;42.724;23.298;2024-03-23T14:07:05;94649.09;;;26.42;22.29
7182;BME280;3632;42.724;23.298;2024-03-23T14:09:32;94749.94;;;27.67;20.64
7182;BME280;3632;42.724;23.298;2024-03-23T14:12:00;94714.16;;;26.55;21.30
7182;BME280;3632;42.724;23.298;2024-03-23T14:14:28;94784.03;;;25.89;22.28
7182;BME280;3632;42.724;23.298;2024-03-23T14:16:55;94746.06;;;26.68;22.23
7182;BME280;3632;42.724;23.298;2024-03-23T14:19:21;94777.63;;;26.78;22.07
7182;BME280;3632;42.724;23.298;2024-03-23T14:21:47;94771.81;;;27.45;21.65
7182;BME280;3632;42.724;23.298;2024-03-23T14:24:14;94768.44;;;27.78;20.47
7182;BME280;3632;42.724;23.298;2024-03-23T14:26:42;94765.88;;;26.41;21.10
7182;BME280;3632;42.724;23.298;2024-03-23T14:29:08;94739.03;;;25.53;22.62
7182;BME280;3632;42.724;23.298;2024-03-23T14:31:35;94719.13;;;25.81;22.12
7182;BME280;3632;42.724;23.298;2024-03-23T14:34:01;94758.31;;;27.08;21.19